Aérodrome :
LOGIN :

S'inscrire | Disclaimer

   EN    FR    IT 

 










Légende :    VFR   VFR Marginal   IFR   IFR Intensif   IFR Très Intensif
Visi : 
Plafond : 
>= 8 km
>= 3000ft
5 à 8 km
1000 à 3000 ft
1500m à 5 km
500 à 1000 ft
800 à 1500m
200 à 500 ft
< 800m
< 200 ft
Symboles :   Orages  Brouillard  Fortes neiges  Fortes précipitations  Vent > 20 kt
SIGMETs :   Divers  Orages  Givrage  Turbulence  Onde Orograph.  Cendres Volcan.







- Altitude de l'aérodrome : 3360 ft
- Code IATA : QSF


DAAS - 8 Mai 45

DERNIER METAR :
  • 131800Z 36004KT 9999 SCT030 05/M00 Q1026

METARs EXPIRÉS :
  • 131700Z 32004KT 9999 SCT030 07/01 Q1026
  • 131600Z 26005KT 9999 SCT030 09/02 Q1026

TAF TAF DAAS
Valide du 13 à 18h jusqu'au 14 à 18h UTC


131700Z 1318/1418 30010KT 9999 SCT030
PROB30
TEMPO 1318/1321 FEW026TCU
BECMG 1320/1322 23008KT
PROB40
TEMPO 1400/1406 4000 BR BKN010
Pas de NOTAMs connus pour ce terrain.
1 SIGMET publié pour la FIR Alger (DAAA) :
 
Orages noyés dans la masse
DAAA SIGMET 1 VALID 131800/132200 DAMM
DAAA ALGIERS FIR EMBD TS FCST WI N2332 E00501 - N2417 E00854 - N2318 E01134 - N1928 E00543 - N1905 E00311 - N2024 E00142 - N2332 E00501 TOP FL380 MOV NE 25KT NC=



MET'MAP, la Météo Aéronautique d'un coup d'oeil ! - Copyright ORBIFLY Décembre 2007 - Disclaimer

ORBIFLY MET'MAP TEAM :

Programmation & Développement : Alexandra Zaïnal
Conception & Développement : Baudouin d'Aumeries
Co-Programmation & Développement : Marc-Olivier Méhu
Soutien technique & logistique : Manuel Goepfert

Contact : metmap@orbifly.com




SOURCES & CREDITS :

   NOAA